Time;durP1;ratioP1;P1;durP2;ratioP2;P2;SDS_P1;SDS_P2;PMS_P1;PMS_P2;Temp;Humidity;BMP_temperature;BMP_pressure;BME280_temperature;BME280_humidity;BME280_pressure;Samples;Min_cycle;Max_cycle;Signal;HPM_P1;HPM_P2
2021/03/19 00:00:58;;;;;;;13.00;3.33;;;;;;;;;;5071458;28;20052;-82
2021/03/19 00:03:23;;;;;;;11.83;3.00;;;;;;;;;;5071877;28;20555;-82
2021/03/19 00:05:48;;;;;;;9.87;2.63;;;;;;;;;;5071631;28;20021;-82
2021/03/19 00:08:14;;;;;;;11.33;3.10;;;;;;;;;;5073113;28;20013;-82
2021/03/19 00:10:39;;;;;;;12.37;2.63;;;;;;;;;;5072024;28;20044;-82
2021/03/19 00:13:05;;;;;;;13.10;3.20;;;;;;;;;;5072718;28;20032;-82
2021/03/19 00:15:31;;;;;;;11.83;2.73;;;;;;;;;;5071766;28;20555;-82
2021/03/19 00:17:57;;;;;;;10.60;2.37;;;;;;;;;;5071473;28;20048;-82
2021/03/19 00:20:22;;;;;;;13.77;2.70;;;;;;;;;;5071474;28;20028;-82
2021/03/19 00:22:48;;;;;;;19.17;2.73;;;;;;;;;;5070647;28;20032;-83
2021/03/19 00:25:13;;;;;;;15.10;2.97;;;;;;;;;;5058107;28;20081;-82
2021/03/19 00:27:38;;;;;;;11.17;2.20;;;;;;;;;;5069761;28;20468;-82
2021/03/19 00:30:06;;;;;;;11.90;2.53;;;;;;;;;;5063343;28;20025;-82
2021/03/19 00:32:31;;;;;;;12.50;2.27;;;;;;;;;;5072674;28;20353;-82
2021/03/19 00:34:56;;;;;;;12.97;2.40;;;;;;;;;;5071462;28;20047;-82
2021/03/19 00:37:21;;;;;;;13.07;3.10;;;;;;;;;;5071282;28;20028;-82
2021/03/19 00:39:47;;;;;;;21.27;2.80;;;;;;;;;;5072713;28;20032;-82
2021/03/19 00:42:12;;;;;;;5.63;2.23;;;;;;;;;;5070971;28;20024;-83
2021/03/19 00:44:38;;;;;;;13.53;2.13;;;;;;;;;;5071006;28;20020;-82
2021/03/19 00:47:03;;;;;;;11.27;2.40;;;;;;;;;;5071151;28;20082;-82
2021/03/19 00:49:29;;;;;;;13.73;2.57;;;;;;;;;;5071257;28;20024;-82
2021/03/19 00:51:54;;;;;;;15.67;2.30;;;;;;;;;;5072537;28;20020;-82
2021/03/19 00:54:19;;;;;;;12.90;2.63;;;;;;;;;;5071005;28;20028;-82
2021/03/19 00:56:44;;;;;;;14.40;3.03;;;;;;;;;;5071241;28;20048;-82
2021/03/19 00:59:10;;;;;;;12.87;2.50;;;;;;;;;;5070925;28;20101;-82
2021/03/19 01:01:35;;;;;;;11.70;2.50;;;;;;;;;;5072549;28;20104;-82
2021/03/19 01:04:01;;;;;;;12.83;2.63;;;;;;;;;;5074925;28;20020;-82
2021/03/19 01:06:26;;;;;;;11.27;2.53;;;;;;;;;;5062519;28;20075;-82
2021/03/19 01:08:51;;;;;;;14.47;2.90;;;;;;;;;;5076589;28;20028;-82
2021/03/19 01:11:17;;;;;;;13.77;2.80;;;;;;;;;;5075045;28;20029;-82
2021/03/19 01:13:42;;;;;;;14.20;3.50;;;;;;;;;;5076333;28;20366;-83
2021/03/19 01:16:07;;;;;;;10.90;2.30;;;;;;;;;;5074876;28;20039;-82
2021/03/19 01:18:32;;;;;;;11.17;2.27;;;;;;;;;;5076415;28;20107;-82
2021/03/19 01:20:58;;;;;;;13.27;2.80;;;;;;;;;;5076171;28;20016;-82
2021/03/19 01:23:23;;;;;;;8.47;2.47;;;;;;;;;;5074775;28;20067;-82
2021/03/19 01:25:48;;;;;;;11.43;2.70;;;;;;;;;;5074863;28;20024;-82
2021/03/19 01:28:16;;;;;;;7.63;2.90;;;;;;;;;;5074596;28;20024;-82
2021/03/19 01:30:42;;;;;;;10.07;2.50;;;;;;;;;;5074144;28;20029;-82
2021/03/19 01:33:08;;;;;;;11.63;2.77;;;;;;;;;;5075989;28;20024;-82
2021/03/19 01:35:34;;;;;;;11.87;3.57;;;;;;;;;;5074345;28;20024;-82
2021/03/19 01:37:59;;;;;;;9.73;3.00;;;;;;;;;;5075857;28;20040;-82
2021/03/19 01:40:28;;;;;;;10.43;2.87;;;;;;;;;;5074209;28;20506;-82
2021/03/19 01:42:54;;;;;;;11.83;2.93;;;;;;;;;;5074234;28;20023;-82
2021/03/19 01:45:38;;;;;;;9.93;2.90;;;;;;;;;;5074349;28;20016;-82
2021/03/19 01:48:22;;;;;;;11.63;3.43;;;;;;;;;;5074256;28;20017;-82
2021/03/19 01:51:06;;;;;;;11.30;3.00;;;;;;;;;;5071755;28;20087;-82
2021/03/19 01:53:50;;;;;;;12.43;3.00;;;;;;;;;;5071401;28;20043;-82
2021/03/19 01:56:33;;;;;;;17.70;3.80;;;;;;;;;;5075490;28;20025;-82
2021/03/19 01:59:17;;;;;;;7.90;2.80;;;;;;;;;;5075498;28;20025;-82
2021/03/19 02:02:01;;;;;;;11.73;2.93;;;;;;;;;;5073980;28;20420;-82
2021/03/19 02:04:45;;;;;;;13.63;3.40;;;;;;;;;;5074231;28;20487;-82
2021/03/19 02:07:29;;;;;;;14.90;2.93;;;;;;;;;;5073983;28;20033;-82
2021/03/19 02:10:13;;;;;;;10.57;3.17;;;;;;;;;;5073354;28;20126;-82
2021/03/19 02:12:56;;;;;;;17.97;4.17;;;;;;;;;;5063044;28;20032;-82
2021/03/19 02:15:40;;;;;;;12.47;3.23;;;;;;;;;;5073839;28;20441;-82
2021/03/19 02:18:24;;;;;;;14.57;3.20;;;;;;;;;;5075073;28;20025;-82
2021/03/19 02:21:08;;;;;;;13.30;3.70;;;;;;;;;;5073629;28;20035;-82
2021/03/19 02:23:52;;;;;;;8.97;3.20;;;;;;;;;;5073065;28;20048;-82
2021/03/19 02:26:36;;;;;;;13.53;3.30;;;;;;;;;;5062994;28;20460;-82
2021/03/19 02:29:19;;;;;;;13.00;3.17;;;;;;;;;;5074576;28;20548;-82
2021/03/19 02:31:58;;;;;;;17.17;3.80;;;;;;;;;;5074946;28;20055;-82
2021/03/19 02:34:34;;;;;;;13.33;3.60;;;;;;;;;;5074364;28;20021;-82
2021/03/19 02:36:59;;;;;;;15.43;3.87;;;;;;;;;;5073576;28;20036;-82
2021/03/19 02:39:25;;;;;;;8.57;3.77;;;;;;;;;;5074737;28;20045;-82
2021/03/19 02:41:50;;;;;;;9.70;3.87;;;;;;;;;;5073476;28;20024;-82
2021/03/19 02:44:15;;;;;;;11.20;3.63;;;;;;;;;;5073120;28;20155;-82
2021/03/19 02:46:40;;;;;;;12.17;3.90;;;;;;;;;;5074784;28;20507;-82
2021/03/19 02:49:05;;;;;;;11.07;3.90;;;;;;;;;;5073420;28;20074;-82
2021/03/19 02:51:31;;;;;;;14.57;3.90;;;;;;;;;;5073057;28;20020;-82
2021/03/19 02:53:56;;;;;;;11.90;4.07;;;;;;;;;;5073112;28;20064;-82
2021/03/19 02:56:21;;;;;;;12.00;4.03;;;;;;;;;;5073161;28;20020;-82
2021/03/19 02:58:46;;;;;;;11.60;4.00;;;;;;;;;;5074573;28;20431;-82
2021/03/19 03:01:11;;;;;;;11.27;4.13;;;;;;;;;;5072787;28;20020;-81
2021/03/19 03:03:37;;;;;;;13.03;4.10;;;;;;;;;;5072900;28;20026;-82
2021/03/19 03:06:02;;;;;;;12.30;4.90;;;;;;;;;;5072999;28;20021;-82
2021/03/19 03:08:28;;;;;;;10.67;5.23;;;;;;;;;;5072754;28;20023;-82
2021/03/19 03:10:54;;;;;;;13.40;4.43;;;;;;;;;;5072889;28;20023;-82
2021/03/19 03:13:19;;;;;;;11.33;4.33;;;;;;;;;;5072401;28;20028;-82
2021/03/19 03:15:45;;;;;;;12.47;4.23;;;;;;;;;;5072845;28;20017;-82
2021/03/19 03:18:11;;;;;;;10.30;4.70;;;;;;;;;;5072842;28;20028;-82
2021/03/19 03:20:38;;;;;;;9.17;4.60;;;;;;;;;;5072681;28;20029;-83
2021/03/19 03:23:04;;;;;;;16.30;4.70;;;;;;;;;;5073719;28;20029;-82
2021/03/19 03:25:29;;;;;;;10.57;3.83;;;;;;;;;;5071819;28;20024;-82
2021/03/19 03:27:54;;;;;;;7.87;4.03;;;;;;;;;;5072616;28;20017;-82
2021/03/19 03:30:23;;;;;;;7.53;3.17;;;;;;;;;;5072422;28;20522;-82
2021/03/19 03:32:48;;;;;;;11.73;4.77;;;;;;;;;;5073702;28;20510;-83
2021/03/19 03:35:14;;;;;;;8.60;4.93;;;;;;;;;;5071919;28;20044;-82
2021/03/19 03:37:39;;;;;;;9.77;4.93;;;;;;;;;;5073797;28;20044;-82
2021/03/19 03:40:06;;;;;;;12.23;4.57;;;;;;;;;;5072350;28;20066;-82
2021/03/19 03:42:32;;;;;;;10.13;4.33;;;;;;;;;;5072147;28;20082;-82
2021/03/19 03:44:57;;;;;;;10.67;4.87;;;;;;;;;;5073336;28;20020;-82
2021/03/19 03:47:23;;;;;;;12.70;4.90;;;;;;;;;;5072150;28;20024;-82
2021/03/19 03:49:48;;;;;;;9.53;4.83;;;;;;;;;;5072337;28;20026;-82
2021/03/19 03:52:13;;;;;;;11.33;4.67;;;;;;;;;;5072109;28;20031;-82
2021/03/19 03:54:38;;;;;;;10.73;5.10;;;;;;;;;;5073275;28;20382;-82
2021/03/19 03:57:04;;;;;;;12.60;4.20;;;;;;;;;;5072174;28;20025;-82
2021/03/19 03:59:29;;;;;;;6.80;4.23;;;;;;;;;;5071787;28;20025;-82
2021/03/19 04:01:54;;;;;;;9.17;4.57;;;;;;;;;;5072014;28;20110;-82
2021/03/19 04:04:19;;;;;;;9.00;4.63;;;;;;;;;;5071842;28;20463;-82
2021/03/19 04:06:45;;;;;;;11.90;4.13;;;;;;;;;;5071796;28;20380;-82
2021/03/19 04:09:10;;;;;;;8.77;4.43;;;;;;;;;;5071988;28;20021;-83
2021/03/19 04:11:35;;;;;;;11.90;5.07;;;;;;;;;;5071563;28;20452;-82
2021/03/19 04:14:00;;;;;;;8.00;4.13;;;;;;;;;;5071675;28;20086;-82
2021/03/19 04:16:26;;;;;;;8.37;4.73;;;;;;;;;;5073064;28;20029;-82
2021/03/19 04:18:51;;;;;;;11.17;4.73;;;;;;;;;;5071694;28;20020;-82
2021/03/19 04:21:16;;;;;;;9.73;4.13;;;;;;;;;;5071698;28;20024;-82
2021/03/19 04:23:44;;;;;;;15.33;4.83;;;;;;;;;;5072633;28;20029;-83
2021/03/19 04:26:30;;;;;;;8.63;5.03;;;;;;;;;;5071485;28;20418;-82
2021/03/19 04:28:55;;;;;;;9.00;4.40;;;;;;;;;;5071559;28;20091;-82
2021/03/19 04:31:20;;;;;;;10.70;4.90;;;;;;;;;;5072965;28;20051;-83
2021/03/19 04:33:46;;;;;;;12.90;6.13;;;;;;;;;;5071222;28;20035;-82
2021/03/19 04:36:24;;;;;;;8.60;5.50;;;;;;;;;;5071587;28;20020;-82
2021/03/19 04:38:50;;;;;;;15.97;5.90;;;;;;;;;;5071331;28;20032;-82
2021/03/19 04:41:15;;;;;;;8.97;4.93;;;;;;;;;;5072767;28;20482;-82
2021/03/19 04:43:40;;;;;;;13.20;6.07;;;;;;;;;;5071315;28;20021;-82
2021/03/19 04:46:05;;;;;;;12.33;5.77;;;;;;;;;;5071317;28;20062;-82
2021/03/19 04:48:31;;;;;;;10.20;5.37;;;;;;;;;;5071491;28;20016;-82
2021/03/19 04:50:56;;;;;;;9.20;5.00;;;;;;;;;;5072574;28;20020;-82
2021/03/19 04:53:21;;;;;;;11.23;6.03;;;;;;;;;;5072686;28;20419;-82
2021/03/19 04:55:46;;;;;;;10.43;5.80;;;;;;;;;;5071057;28;20388;-82
2021/03/19 04:58:12;;;;;;;13.27;6.53;;;;;;;;;;5072644;28;20027;-82
2021/03/19 05:00:37;;;;;;;17.23;6.93;;;;;;;;;;5071100;28;20020;-82
2021/03/19 05:03:02;;;;;;;12.53;6.60;;;;;;;;;;5071102;28;20024;-82
2021/03/19 05:05:32;;;;;;;12.83;6.63;;;;;;;;;;5071092;28;20027;-82
2021/03/19 05:07:57;;;;;;;15.33;6.73;;;;;;;;;;5072457;28;20039;-82
2021/03/19 05:10:24;;;;;;;14.97;7.07;;;;;;;;;;5072380;28;20033;-82
2021/03/19 05:12:50;;;;;;;17.07;7.07;;;;;;;;;;5071165;28;20392;-83
2021/03/19 05:15:15;;;;;;;16.37;6.77;;;;;;;;;;5072129;28;20028;-82
2021/03/19 05:17:40;;;;;;;11.90;6.80;;;;;;;;;;5072422;28;20020;-82
2021/03/19 05:20:07;;;;;;;11.67;6.30;;;;;;;;;;5070983;28;20027;-82
2021/03/19 05:22:33;;;;;;;10.60;6.37;;;;;;;;;;5071079;28;20035;-82
2021/03/19 05:24:58;;;;;;;12.03;6.90;;;;;;;;;;5070946;28;20402;-82
2021/03/19 05:27:25;;;;;;;11.53;7.03;;;;;;;;;;5070888;28;20375;-82
2021/03/19 05:29:51;;;;;;;15.00;7.50;;;;;;;;;;5072389;28;20048;-82
2021/03/19 05:32:17;;;;;;;14.80;6.70;;;;;;;;;;5070848;28;20070;-81
2021/03/19 05:34:42;;;;;;;13.33;7.40;;;;;;;;;;5070692;28;20024;-82
2021/03/19 05:37:07;;;;;;;14.47;7.07;;;;;;;;;;5070873;28;20321;-82
2021/03/19 05:39:32;;;;;;;16.27;7.67;;;;;;;;;;5070952;28;20025;-82
2021/03/19 05:41:58;;;;;;;13.20;7.63;;;;;;;;;;5070882;28;20047;-82
2021/03/19 05:44:24;;;;;;;13.17;7.37;;;;;;;;;;5071870;28;20020;-82
2021/03/19 05:46:51;;;;;;;12.90;8.03;;;;;;;;;;5070941;28;20020;-82
2021/03/19 05:49:21;;;;;;;16.67;9.07;;;;;;;;;;5074366;28;20061;-82
2021/03/19 05:52:09;;;;;;;17.90;8.60;;;;;;;;;;5076266;28;20024;-82
2021/03/19 05:54:34;;;;;;;20.27;8.77;;;;;;;;;;5070984;28;20387;-82
2021/03/19 05:57:00;;;;;;;20.70;10.10;;;;;;;;;;5074435;28;20020;-82
2021/03/19 05:59:25;;;;;;;22.97;10.10;;;;;;;;;;5075616;28;20366;-82
2021/03/19 06:01:50;;;;;;;23.50;11.07;;;;;;;;;;5073786;28;20055;-82
2021/03/19 06:04:21;;;;;;;20.13;9.93;;;;;;;;;;5074374;28;20020;-82
2021/03/19 06:06:52;;;;;;;20.50;10.70;;;;;;;;;;5075519;28;20506;-82
2021/03/19 06:09:22;;;;;;;20.17;9.83;;;;;;;;;;5074249;28;20046;-82
2021/03/19 06:11:48;;;;;;;16.10;8.40;;;;;;;;;;5074952;28;20024;-82
2021/03/19 06:14:15;;;;;;;15.47;8.40;;;;;;;;;;5075547;28;20025;-82
2021/03/19 06:16:45;;;;;;;14.23;7.83;;;;;;;;;;5073957;28;20048;-82
2021/03/19 06:19:31;;;;;;;15.93;8.10;;;;;;;;;;5074048;28;20017;-82
2021/03/19 06:22:26;;;;;;;16.07;8.53;;;;;;;;;;5073523;28;20016;-82
2021/03/19 06:24:53;;;;;;;17.33;7.13;;;;;;;;;;5056681;28;20028;-82
2021/03/19 06:27:18;;;;;;;16.50;8.23;;;;;;;;;;5074288;28;20044;-82
2021/03/19 06:29:43;;;;;;;14.30;8.13;;;;;;;;;;5073876;28;20492;-82
2021/03/19 06:32:14;;;;;;;15.13;8.17;;;;;;;;;;5073436;28;20040;-82
2021/03/19 06:34:51;;;;;;;16.17;7.83;;;;;;;;;;5075108;28;20025;-82
2021/03/19 06:37:24;;;;;;;12.83;5.70;;;;;;;;;;5074886;28;20066;-82
2021/03/19 06:39:51;;;;;;;15.87;6.90;;;;;;;;;;5074973;28;20025;-82
2021/03/19 06:42:20;;;;;;;12.83;7.13;;;;;;;;;;5073525;28;20027;-82
2021/03/19 06:45:01;;;;;;;12.23;6.87;;;;;;;;;;5073263;28;20373;-82
2021/03/19 06:47:55;;;;;;;13.70;6.33;;;;;;;;;;5073385;28;20468;-83
2021/03/19 06:50:24;;;;;;;12.97;7.10;;;;;;;;;;5048422;28;20123;-83
2021/03/19 06:52:50;;;;;;;11.90;6.67;;;;;;;;;;5072746;28;20021;-83
2021/03/19 06:55:33;;;;;;;10.17;5.57;;;;;;;;;;5072082;28;20024;-82
2021/03/19 06:57:58;;;;;;;11.53;5.87;;;;;;;;;;5072051;28;20016;-83
2021/03/19 07:00:34;;;;;;;13.83;6.83;;;;;;;;;;5070826;28;20082;-82
2021/03/19 07:03:10;;;;;;;12.97;6.77;;;;;;;;;;5072668;28;20024;-82
2021/03/19 07:05:49;;;;;;;10.43;6.13;;;;;;;;;;5073136;28;20107;-82
2021/03/19 07:08:24;;;;;;;13.63;6.03;;;;;;;;;;5072872;28;20115;-82
2021/03/19 07:11:01;;;;;;;11.60;5.67;;;;;;;;;;5072569;28;20032;-83
2021/03/19 07:13:41;;;;;;;13.73;6.60;;;;;;;;;;5073447;28;20024;-82
2021/03/19 07:16:10;;;;;;;10.37;6.10;;;;;;;;;;5073640;28;20032;-82
2021/03/19 07:18:35;;;;;;;13.23;6.60;;;;;;;;;;5072557;28;20145;-82
2021/03/19 07:21:06;;;;;;;8.80;5.67;;;;;;;;;;5072520;28;20054;-83
2021/03/19 07:23:42;;;;;;;10.30;6.20;;;;;;;;;;5072635;28;20068;-83
2021/03/19 07:26:10;;;;;;;7.53;4.40;;;;;;;;;;5071775;28;20066;-83
2021/03/19 07:28:42;;;;;;;9.50;5.13;;;;;;;;;;5072076;28;20021;-82
2021/03/19 07:31:26;;;;;;;9.75;5.03;;;;;;;;;;5072211;28;20353;-82
2021/03/19 07:34:02;;;;;;;10.27;5.33;;;;;;;;;;5072145;28;20020;-82
2021/03/19 07:36:27;;;;;;;9.97;5.63;;;;;;;;;;5062136;28;20043;-82
2021/03/19 07:39:09;;;;;;;11.30;6.27;;;;;;;;;;5068639;28;20103;-83
2021/03/19 07:41:49;;;;;;;8.45;5.07;;;;;;;;;;5073395;28;20024;-82
2021/03/19 07:44:25;;;;;;;8.97;5.57;;;;;;;;;;5073109;28;20056;-82
2021/03/19 07:46:53;;;;;;;10.77;5.23;;;;;;;;;;5071992;28;20082;-82
2021/03/19 07:49:30;;;;;;;9.33;4.93;;;;;;;;;;5071941;28;20008;-83
2021/03/19 07:52:04;;;;;;;10.03;4.80;;;;;;;;;;5071995;28;20520;-83
2021/03/19 07:54:43;;;;;;;11.73;5.93;;;;;;;;;;5071838;28;20052;-83
2021/03/19 07:57:27;;;;;;;8.13;3.90;;;;;;;;;;5073285;28;20029;-83
2021/03/19 08:00:11;;;;;;;9.17;4.90;;;;;;;;;;5058746;28;20161;-82
2021/03/19 08:02:55;;;;;;;10.00;4.30;;;;;;;;;;5072001;28;20024;-83
2021/03/19 08:05:25;;;;;;;8.90;4.00;;;;;;;;;;5060790;28;20116;-82
2021/03/19 08:08:00;;;;;;;10.30;4.10;;;;;;;;;;5064681;28;20021;-83
2021/03/19 08:10:27;;;;;;;8.33;4.73;;;;;;;;;;5073155;28;20477;-82
2021/03/19 08:13:12;;;;;;;7.13;3.97;;;;;;;;;;5071429;28;20139;-82
2021/03/19 08:15:47;;;;;;;10.57;3.87;;;;;;;;;;5055390;28;20043;-83
2021/03/19 08:18:27;;;;;;;7.70;4.13;;;;;;;;;;5067111;28;20075;-82
2021/03/19 08:20:55;;;;;;;6.90;4.20;;;;;;;;;;5071498;28;20380;-82
2021/03/19 08:23:29;;;;;;;5.83;3.13;;;;;;;;;;5071414;28;20020;-83
2021/03/19 08:25:55;;;;;;;5.10;2.87;;;;;;;;;;5071518;28;20008;-82
2021/03/19 08:28:29;;;;;;;7.30;4.10;;;;;;;;;;5071517;28;20085;-83
2021/03/19 08:31:13;;;;;;;4.43;2.83;;;;;;;;;;5057969;28;20104;-83
2021/03/19 08:33:50;;;;;;;6.80;3.50;;;;;;;;;;5067985;28;20021;-83
2021/03/19 08:36:30;;;;;;;8.27;3.15;;;;;;;;;;5071435;28;20020;-82
2021/03/19 08:38:59;;;;;;;5.93;3.07;;;;;;;;;;5071289;28;20029;-82
2021/03/19 08:41:27;;;;;;;6.97;3.53;;;;;;;;;;5071166;28;20016;-82
2021/03/19 08:43:54;;;;;;;5.03;2.65;;;;;;;;;;5071051;28;20019;-83
2021/03/19 08:46:24;;;;;;;5.80;3.17;;;;;;;;;;5071070;28;20082;-83
2021/03/19 08:48:53;;;;;;;10.43;3.40;;;;;;;;;;5070989;28;20016;-83
2021/03/19 08:51:35;;;;;;;5.95;3.47;;;;;;;;;;5071114;28;20115;-82
2021/03/19 08:54:12;;;;;;;6.72;3.10;;;;;;;;;;5070918;28;20163;-83
2021/03/19 08:56:51;;;;;;;9.02;3.13;;;;;;;;;;5070776;28;20107;-82
2021/03/19 08:59:35;;;;;;;3.75;2.38;;;;;;;;;;5070966;28;20025;-82
2021/03/19 09:02:00;;;;;;;4.60;1.88;;;;;;;;;;5054571;28;20025;-83
2021/03/19 09:04:44;;;;;;;2.32;0.86;;;;;;;;;;5065313;28;20012;-83
2021/03/19 09:07:24;;;;;;;6.10;2.28;;;;;;;;;;5059798;28;20032;-82
2021/03/19 09:09:50;;;;;;;4.05;1.92;;;;;;;;;;5070947;28;20025;-82
2021/03/19 09:12:21;;;;;;;7.15;2.40;;;;;;;;;;5072060;28;20036;-82
2021/03/19 09:14:48;;;;;;;3.72;1.73;;;;;;;;;;5071125;28;20035;-82
2021/03/19 09:17:32;;;;;;;5.55;1.80;;;;;;;;;;5071133;28;20035;-82
2021/03/19 09:20:03;;;;;;;3.78;1.30;;;;;;;;;;5070859;28;20024;-82
2021/03/19 09:22:38;;;;;;;5.55;1.60;;;;;;;;;;5072042;28;20028;-82
2021/03/19 09:25:14;;;;;;;3.95;1.60;;;;;;;;;;5074786;28;20108;-82
2021/03/19 09:28:11;;;;;;;3.08;1.48;;;;;;;;;;5074989;28;20017;-82
2021/03/19 09:31:00;;;;;;;1.90;1.13;;;;;;;;;;5063492;28;20025;-82
2021/03/19 09:33:41;;;;;;;2.95;1.42;;;;;;;;;;5071619;28;20029;-83
2021/03/19 09:36:06;;;;;;;3.38;1.10;;;;;;;;;;5059131;28;20116;-82
2021/03/19 09:38:31;;;;;;;2.60;1.13;;;;;;;;;;5068217;28;20139;-82
2021/03/19 09:40:58;;;;;;;2.70;1.10;;;;;;;;;;5074400;28;20038;-83
2021/03/19 09:43:32;;;;;;;1.52;0.75;;;;;;;;;;5074630;28;20035;-83
2021/03/19 09:46:02;;;;;;;3.70;1.10;;;;;;;;;;5074334;28;20371;-82
2021/03/19 09:48:29;;;;;;;1.85;1.00;;;;;;;;;;5074580;28;20082;-83
2021/03/19 09:50:56;;;;;;;2.67;0.80;;;;;;;;;;5074069;28;20416;-82
2021/03/19 09:53:48;;;;;;;1.17;0.68;;;;;;;;;;5074398;28;20420;-82
2021/03/19 09:56:18;;;;;;;3.38;0.88;;;;;;;;;;5072998;28;20565;-83
2021/03/19 09:58:48;;;;;;;2.08;1.08;;;;;;;;;;5074303;28;20020;-82
2021/03/19 10:01:30;;;;;;;5.75;1.75;;;;;;;;;;5073871;28;20387;-82
2021/03/19 10:03:59;;;;;;;2.67;1.35;;;;;;;;;;5076405;28;20009;-82
2021/03/19 10:06:29;;;;;;;2.78;0.40;;;;;;;;;;5068883;28;20073;-82
2021/03/19 10:09:10;;;;;;;2.33;1.20;;;;;;;;;;5073937;28;20107;-83
2021/03/19 10:11:36;;;;;;;3.30;1.35;;;;;;;;;;5073766;28;20051;-82
2021/03/19 10:14:11;;;;;;;4.32;1.30;;;;;;;;;;5075342;28;20020;-83
2021/03/19 10:16:37;;;;;;;3.08;1.10;;;;;;;;;;5073665;28;20446;-83
2021/03/19 10:19:08;;;;;;;1.83;0.85;;;;;;;;;;5099149;28;20044;-82
2021/03/19 10:21:40;;;;;;;3.67;1.23;;;;;;;;;;5067792;28;20107;-83
2021/03/19 10:24:06;;;;;;;1.52;1.00;;;;;;;;;;5073993;28;20250;-82
2021/03/19 10:26:32;;;;;;;3.58;1.55;;;;;;;;;;5073881;28;20031;-83
2021/03/19 10:29:18;;;;;;;3.88;1.80;;;;;;;;;;5074859;28;20035;-82
2021/03/19 10:31:46;;;;;;;3.45;1.40;;;;;;;;;;5073218;28;20093;-83
2021/03/19 10:34:47;;;;;;;3.55;1.50;;;;;;;;;;5073200;28;20090;-83
2021/03/19 10:37:33;;;;;;;1.98;0.88;;;;;;;;;;5052404;28;20021;-82
2021/03/19 10:40:10;;;;;;;3.58;1.30;;;;;;;;;;5063415;28;20123;-83
2021/03/19 10:42:36;;;;;;;3.55;1.50;;;;;;;;;;5072953;28;20022;-82
2021/03/19 10:45:10;;;;;;;2.17;1.45;;;;;;;;;;5073398;28;20017;-82
2021/03/19 10:47:40;;;;;;;6.65;1.83;;;;;;;;;;5073288;28;20031;-82
2021/03/19 10:50:06;;;;;;;2.78;1.40;;;;;;;;;;5074706;28;20047;-82
2021/03/19 10:52:33;;;;;;;3.22;1.55;;;;;;;;;;5073064;28;20024;-83
2021/03/19 10:55:00;;;;;;;3.28;1.73;;;;;;;;;;5073301;28;20019;-83
2021/03/19 10:57:31;;;;;;;3.83;1.80;;;;;;;;;;5074103;28;20476;-83
2021/03/19 10:59:56;;;;;;;6.72;1.75;;;;;;;;;;5073179;28;20024;-82
2021/03/19 11:02:23;;;;;;;1.65;0.52;;;;;;;;;;5073167;28;20100;-82
2021/03/19 11:04:54;;;;;;;2.33;1.27;;;;;;;;;;5073132;28;20024;-82
2021/03/19 11:07:24;;;;;;;3.95;1.55;;;;;;;;;;5072994;28;20021;-82
2021/03/19 11:10:08;;;;;;;6.30;1.88;;;;;;;;;;5074481;28;20020;-82
2021/03/19 11:12:40;;;;;;;5.40;1.92;;;;;;;;;;5068096;28;20070;-82
2021/03/19 11:15:20;;;;;;;6.72;1.63;;;;;;;;;;5069534;28;20024;-82
2021/03/19 11:17:45;;;;;;;4.47;1.70;;;;;;;;;;5072872;28;20486;-83
2021/03/19 11:20:17;;;;;;;4.22;1.67;;;;;;;;;;5072705;28;20027;-83
2021/03/19 11:22:43;;;;;;;2.30;1.15;;;;;;;;;;5072336;28;20024;-82
2021/03/19 11:25:21;;;;;;;2.28;1.17;;;;;;;;;;5073842;28;20475;-82
2021/03/19 11:27:46;;;;;;;4.07;1.08;;;;;;;;;;5072679;28;20013;-82
2021/03/19 11:30:24;;;;;;;2.75;1.63;;;;;;;;;;5073475;28;20594;-82
2021/03/19 11:33:04;;;;;;;5.28;1.85;;;;;;;;;;5073699;28;20035;-82
2021/03/19 11:35:30;;;;;;;2.38;1.45;;;;;;;;;;5069473;28;20116;-82
2021/03/19 11:37:55;;;;;;;3.58;2.10;;;;;;;;;;5072369;28;20051;-82
2021/03/19 11:40:20;;;;;;;3.55;1.58;;;;;;;;;;5073512;28;20044;-82
2021/03/19 11:42:47;;;;;;;4.20;1.30;;;;;;;;;;5072205;28;20023;-82
2021/03/19 11:45:17;;;;;;;2.75;1.73;;;;;;;;;;5072350;28;20030;-82
2021/03/19 11:47:50;;;;;;;2.95;1.40;;;;;;;;;;5071060;28;20069;-83
2021/03/19 11:50:21;;;;;;;3.90;1.35;;;;;;;;;;5071702;28;20027;-82
2021/03/19 11:52:47;;;;;;;3.45;1.77;;;;;;;;;;5072782;28;20025;-83
2021/03/19 11:55:21;;;;;;;2.78;1.60;;;;;;;;;;5071903;28;20038;-82
2021/03/19 11:57:47;;;;;;;2.05;1.60;;;;;;;;;;5072852;28;20016;-82
2021/03/19 12:00:16;;;;;;;3.22;1.60;;;;;;;;;;5073338;28;20082;-82
2021/03/19 12:02:42;;;;;;;2.72;1.30;;;;;;;;;;5069430;28;20099;-82
2021/03/19 12:05:09;;;;;;;1.55;0.73;;;;;;;;;;5071430;28;20033;-82
2021/03/19 12:07:34;;;;;;;3.25;1.23;;;;;;;;;;5071202;28;20021;-82
2021/03/19 12:09:59;;;;;;;2.30;0.70;;;;;;;;;;5072787;28;20027;-82
2021/03/19 12:12:25;;;;;;;3.70;1.23;;;;;;;;;;5072986;28;20067;-82
2021/03/19 12:14:51;;;;;;;6.45;1.33;;;;;;;;;;5072470;28;20024;-83
2021/03/19 12:17:17;;;;;;;1.55;0.85;;;;;;;;;;5071406;28;20028;-83
2021/03/19 12:19:43;;;;;;;2.70;1.00;;;;;;;;;;5067690;28;20020;-82
2021/03/19 12:22:08;;;;;;;4.40;1.70;;;;;;;;;;5069506;28;20074;-83
2021/03/19 12:24:34;;;;;;;1.73;1.00;;;;;;;;;;5070747;28;20028;-82
2021/03/19 12:26:59;;;;;;;2.47;1.40;;;;;;;;;;5072521;28;20024;-84
2021/03/19 12:29:24;;;;;;;4.45;1.42;;;;;;;;;;5071584;28;20491;-82
2021/03/19 12:31:49;;;;;;;3.83;1.35;;;;;;;;;;5070904;28;20020;-82
2021/03/19 12:34:14;;;;;;;2.80;1.40;;;;;;;;;;5070986;28;20464;-83
2021/03/19 12:36:40;;;;;;;4.57;1.30;;;;;;;;;;5071222;28;20384;-82
2021/03/19 12:39:05;;;;;;;1.90;1.05;;;;;;;;;;5069879;28;20025;-82
2021/03/19 12:41:31;;;;;;;3.10;1.02;;;;;;;;;;5071198;28;20024;-82
2021/03/19 12:43:56;;;;;;;1.23;0.55;;;;;;;;;;5069687;28;20048;-82
2021/03/19 12:46:21;;;;;;;4.85;1.35;;;;;;;;;;5066262;28;20384;-82
2021/03/19 12:48:46;;;;;;;2.65;0.80;;;;;;;;;;5073484;28;20020;-83
2021/03/19 12:51:11;;;;;;;1.85;0.80;;;;;;;;;;5071651;28;20016;-83
2021/03/19 12:53:37;;;;;;;1.70;1.20;;;;;;;;;;5071132;28;20071;-82
2021/03/19 12:56:05;;;;;;;3.13;1.10;;;;;;;;;;5072328;28;20012;-82
2021/03/19 12:58:30;;;;;;;1.48;1.00;;;;;;;;;;5071597;28;20035;-82
2021/03/19 13:00:55;;;;;;;6.03;1.27;;;;;;;;;;5070349;28;20021;-83
2021/03/19 13:03:21;;;;;;;2.85;0.90;;;;;;;;;;5071026;28;20021;-83
2021/03/19 13:05:46;;;;;;;2.05;1.00;;;;;;;;;;5071320;28;20030;-83
2021/03/19 13:08:11;;;;;;;2.55;1.20;;;;;;;;;;5072076;28;20052;-83
2021/03/19 13:10:39;;;;;;;1.42;0.95;;;;;;;;;;5069144;28;20099;-83
2021/03/19 13:13:04;;;;;;;1.15;0.55;;;;;;;;;;5070798;28;20028;-83
2021/03/19 13:15:30;;;;;;;2.13;0.73;;;;;;;;;;5060940;28;20456;-82
2021/03/19 13:17:56;;;;;;;2.17;1.20;;;;;;;;;;5071922;28;20479;-82
2021/03/19 13:20:22;;;;;;;2.33;0.90;;;;;;;;;;5070138;28;20371;-82
2021/03/19 13:22:47;;;;;;;2.30;1.10;;;;;;;;;;5069199;28;20078;-83
2021/03/19 13:25:14;;;;;;;1.55;0.90;;;;;;;;;;5069011;28;20016;-83
2021/03/19 13:27:40;;;;;;;1.05;0.63;;;;;;;;;;5072193;28;20021;-82
2021/03/19 13:30:08;;;;;;;2.15;1.20;;;;;;;;;;5069895;28;20023;-83
2021/03/19 13:32:34;;;;;;;2.55;1.20;;;;;;;;;;5062994;28;20052;-82
2021/03/19 13:34:59;;;;;;;4.68;1.40;;;;;;;;;;5071166;28;20044;-82
2021/03/19 13:37:24;;;;;;;4.40;1.45;;;;;;;;;;5069167;28;20506;-82
2021/03/19 13:39:49;;;;;;;2.33;1.20;;;;;;;;;;5070559;28;20020;-82
2021/03/19 13:42:14;;;;;;;1.90;0.98;;;;;;;;;;5071867;28;20016;-83
2021/03/19 13:44:40;;;;;;;2.03;1.00;;;;;;;;;;5070714;28;20013;-83
2021/03/19 13:47:06;;;;;;;1.75;0.98;;;;;;;;;;5072011;28;20024;-83
2021/03/19 13:49:32;;;;;;;1.42;0.90;;;;;;;;;;5069983;28;20104;-83
2021/03/19 13:51:58;;;;;;;3.35;1.23;;;;;;;;;;5069886;28;20111;-82
2021/03/19 13:54:23;;;;;;;3.92;1.00;;;;;;;;;;5069968;28;20107;-82
2021/03/19 13:56:48;;;;;;;2.90;1.40;;;;;;;;;;5070331;28;20123;-83
2021/03/19 13:59:13;;;;;;;6.07;1.52;;;;;;;;;;5070991;28;20031;-83
2021/03/19 14:01:39;;;;;;;1.83;0.90;;;;;;;;;;5069546;28;20081;-82
2021/03/19 14:04:08;;;;;;;3.60;1.30;;;;;;;;;;5071546;28;20043;-83
2021/03/19 14:06:36;;;;;;;1.48;1.02;;;;;;;;;;5069872;28;20021;-83
2021/03/19 14:09:02;;;;;;;2.08;0.95;;;;;;;;;;5064452;28;20017;-83
2021/03/19 14:11:27;;;;;;;4.85;1.70;;;;;;;;;;5071936;28;20385;-83
2021/03/19 14:13:52;;;;;;;4.10;1.13;;;;;;;;;;5074886;28;20059;-83
2021/03/19 14:16:18;;;;;;;2.10;0.90;;;;;;;;;;5073211;28;20016;-83
2021/03/19 14:18:43;;;;;;;2.22;1.13;;;;;;;;;;5074805;28;20028;-82
2021/03/19 14:21:09;;;;;;;6.63;1.00;;;;;;;;;;5073478;28;20032;-83
2021/03/19 14:23:34;;;;;;;1.70;1.02;;;;;;;;;;5073578;28;20074;-82
2021/03/19 14:26:00;;;;;;;3.00;1.02;;;;;;;;;;5073579;28;20017;-83
2021/03/19 14:28:30;;;;;;;4.03;1.42;;;;;;;;;;5073129;28;20044;-82
2021/03/19 14:30:56;;;;;;;2.10;1.38;;;;;;;;;;5074670;28;20032;-82
2021/03/19 14:33:21;;;;;;;5.35;1.60;;;;;;;;;;5065803;28;20464;-83
2021/03/19 14:35:47;;;;;;;2.22;1.38;;;;;;;;;;5066410;28;20060;-82
2021/03/19 14:38:13;;;;;;;3.95;0.85;;;;;;;;;;5073013;28;20024;-83
2021/03/19 14:40:39;;;;;;;2.10;0.70;;;;;;;;;;5072963;28;20476;-83
2021/03/19 14:43:05;;;;;;;2.80;0.40;;;;;;;;;;5074365;28;20024;-82
2021/03/19 14:45:30;;;;;;;2.00;0.95;;;;;;;;;;5072982;28;20024;-82
2021/03/19 14:47:56;;;;;;;1.42;0.95;;;;;;;;;;5074569;28;20015;-82
2021/03/19 14:50:24;;;;;;;3.33;1.00;;;;;;;;;;5073305;28;20044;-83